createdAt,value
2022-12-06T00:03:31.343Z,14.70
2022-12-06T00:08:23.050Z,13.50
2022-12-06T00:13:14.909Z,17.23
2022-12-06T00:18:06.615Z,12.83
2022-12-06T00:22:58.396Z,15.83
2022-12-06T00:27:51.543Z,16.87
2022-12-06T00:32:43.227Z,15.43
2022-12-06T00:37:35.057Z,15.60
2022-12-06T00:42:26.760Z,16.17
2022-12-06T00:47:18.426Z,14.20
2022-12-06T00:52:10.129Z,15.30
2022-12-06T00:57:01.862Z,14.23
2022-12-06T01:01:53.544Z,16.47
2022-12-06T01:06:45.265Z,16.20
2022-12-06T01:11:38.120Z,17.37
2022-12-06T01:16:31.951Z,16.03
2022-12-06T01:21:25.545Z,16.80
2022-12-06T01:26:37.548Z,17.57
2022-12-06T01:31:37.323Z,19.73
2022-12-06T01:36:29.812Z,19.03
2022-12-06T01:41:24.932Z,14.40
2022-12-06T01:46:38.950Z,19.90
2022-12-06T01:51:31.257Z,15.60
2022-12-06T01:56:23.450Z,16.43
2022-12-06T02:01:15.713Z,14.87
2022-12-06T02:06:09.287Z,15.80
2022-12-06T02:11:04.019Z,13.77
2022-12-06T02:16:33.218Z,15.77
2022-12-06T02:21:52.769Z,16.10
2022-12-06T02:27:16.983Z,18.67
2022-12-06T02:32:34.467Z,20.63
2022-12-06T02:37:47.498Z,21.37
2022-12-06T02:42:56.485Z,27.60
2022-12-06T02:47:51.139Z,26.03
2022-12-06T02:52:49.144Z,27.97
2022-12-06T02:57:51.496Z,35.00
2022-12-06T03:02:43.502Z,26.97
2022-12-06T03:07:41.378Z,24.53
2022-12-06T03:12:54.301Z,37.60
2022-12-06T03:18:10.284Z,26.60
2022-12-06T03:23:07.145Z,18.40
2022-12-06T03:28:02.697Z,24.70
2022-12-06T03:32:54.594Z,25.67
2022-12-06T03:37:56.248Z,35.33
2022-12-06T03:42:49.492Z,17.63
2022-12-06T03:48:22.541Z,21.63
2022-12-06T03:53:18.607Z,28.87
2022-12-06T03:58:10.345Z,26.50
2022-12-06T04:03:02.009Z,22.90
2022-12-06T04:07:53.773Z,22.97
2022-12-06T04:13:00.888Z,30.43
2022-12-06T04:18:10.615Z,18.83
2022-12-06T04:23:04.842Z,18.43
2022-12-06T04:28:14.871Z,23.27
2022-12-06T04:33:25.215Z,29.10
2022-12-06T04:38:35.789Z,40.00
2022-12-06T04:43:42.572Z,33.93
2022-12-06T04:48:34.239Z,24.07
2022-12-06T04:53:25.903Z,28.10
2022-12-06T04:58:17.689Z,30.37
2022-12-06T05:03:15.170Z,56.60
2022-12-06T05:08:09.206Z,21.20
2022-12-06T05:13:02.239Z,20.67
2022-12-06T05:17:54.773Z,46.17
2022-12-06T05:22:46.806Z,45.97
2022-12-06T05:27:38.975Z,30.90
2022-12-06T05:32:32.544Z,22.10
2022-12-06T05:37:28.724Z,40.90
2022-12-06T05:47:31.115Z,23.47
2022-12-06T05:52:23.266Z,43.63
2022-12-06T05:57:18.891Z,33.60
2022-12-06T06:02:11.220Z,34.50
2022-12-06T06:07:04.099Z,35.20
2022-12-06T06:11:58.505Z,36.90
2022-12-06T06:16:55.942Z,20.97
2022-12-06T06:21:51.341Z,31.00
2022-12-06T06:26:43.361Z,25.97
2022-12-06T06:36:46.140Z,24.83
2022-12-06T07:02:04.216Z,25.83
2022-12-06T07:06:56.960Z,24.73
2022-12-06T07:11:48.965Z,24.97
2022-12-06T07:16:41.659Z,23.63
2022-12-06T07:21:33.892Z,25.33
2022-12-06T07:26:33.813Z,21.67
2022-12-06T07:31:29.628Z,23.67
2022-12-06T07:36:32.104Z,25.40
2022-12-06T07:41:50.104Z,22.60
2022-12-06T07:51:52.541Z,26.40
2022-12-06T07:56:44.635Z,29.07
2022-12-06T08:06:44.081Z,28.43
2022-12-06T08:11:36.987Z,30.20
2022-12-06T08:21:35.685Z,22.63
2022-12-06T08:26:28.645Z,24.33
2022-12-06T08:31:24.642Z,29.33
2022-12-06T08:36:21.781Z,22.27
2022-12-06T08:41:33.480Z,25.40
2022-12-06T08:51:39.553Z,27.33
2022-12-06T08:56:33.087Z,30.30
2022-12-06T09:11:56.466Z,25.83
2022-12-06T09:27:01.380Z,26.10
2022-12-06T09:31:57.863Z,23.33
2022-12-06T09:36:59.737Z,24.00
2022-12-06T09:59:09.596Z,22.83
2022-12-06T10:04:30.981Z,23.17
2022-12-06T10:09:57.783Z,24.37
2022-12-06T10:20:51.245Z,23.40
2022-12-06T10:26:05.338Z,25.50
2022-12-06T10:31:26.372Z,21.57
2022-12-06T10:36:44.417Z,21.30
2022-12-06T10:41:54.219Z,20.17
2022-12-06T10:47:06.833Z,21.87
2022-12-06T10:53:05.501Z,18.73
2022-12-06T10:58:28.567Z,22.20
2022-12-06T11:09:06.817Z,23.27
2022-12-06T11:14:23.849Z,18.17
2022-12-06T11:19:48.047Z,21.97
2022-12-06T11:25:08.658Z,22.27
2022-12-06T12:01:53.093Z,21.20
2022-12-06T12:17:23.200Z,20.23
2022-12-06T12:22:36.720Z,19.13
2022-12-06T12:33:21.331Z,19.20
2022-12-06T12:38:27.361Z,20.53
2022-12-06T12:43:38.132Z,19.83
2022-12-06T12:48:38.160Z,18.43
2022-12-06T12:53:52.708Z,17.20
2022-12-06T13:26:09.078Z,18.73
2022-12-06T13:41:54.876Z,20.33
2022-12-06T13:46:46.900Z,17.90
2022-12-06T14:02:00.510Z,17.00
2022-12-06T14:50:07.327Z,15.43
2022-12-06T14:55:36.204Z,20.87
2022-12-06T15:06:18.234Z,16.37
2022-12-06T15:11:10.501Z,19.73
2022-12-06T17:35:37.079Z,26.13
2022-12-06T17:50:48.423Z,24.67
2022-12-06T19:28:31.386Z,25.87
2022-12-06T19:54:17.834Z,32.17
2022-12-06T20:04:29.462Z,33.07
2022-12-06T20:09:28.104Z,31.33
2022-12-06T20:19:27.142Z,30.93
2022-12-06T20:24:23.196Z,28.30
2022-12-06T20:29:17.815Z,32.00
2022-12-06T20:49:43.474Z,32.50
2022-12-06T20:54:43.984Z,39.23
2022-12-06T21:20:03.808Z,30.47
2022-12-06T21:25:00.013Z,33.90
2022-12-06T21:29:56.004Z,33.93
2022-12-06T21:34:48.229Z,29.70
2022-12-06T21:39:42.225Z,31.43
2022-12-06T21:44:36.104Z,33.43
2022-12-06T21:54:51.520Z,30.20
2022-12-06T21:59:43.604Z,30.80
2022-12-06T22:04:40.650Z,28.57
2022-12-06T22:14:41.388Z,26.13
2022-12-06T22:19:33.771Z,31.10
2022-12-06T22:24:26.696Z,27.20
2022-12-06T22:29:19.623Z,28.57
2022-12-06T22:34:12.896Z,28.80
2022-12-06T22:39:14.866Z,28.43
2022-12-06T22:49:21.372Z,27.20
2022-12-06T22:54:15.305Z,24.20
2022-12-06T23:04:15.489Z,25.80
2022-12-06T23:09:10.203Z,25.93
2022-12-06T23:14:04.352Z,27.07
2022-12-06T23:19:03.043Z,30.90
2022-12-06T23:24:04.100Z,26.57
2022-12-06T23:28:56.873Z,27.83
2022-12-06T23:33:54.534Z,30.10
2022-12-06T23:38:47.733Z,29.77
2022-12-06T23:43:41.465Z,32.20
2022-12-06T23:48:34.407Z,31.43
2022-12-06T23:53:27.823Z,32.40
2022-12-06T23:58:23.667Z,32.73
